EDXW/GWT METAR and TAF weather

Enter ICAO airport designator
Station Type Date Time Source
EDXW METAR 2020/01/18 15:50 UTC NOAA

EDXW 181550Z 28015KT 9999 VCSH SCT023TCU 06/04 Q1018


Station Type Date Time Source
EDXW Decoded METAR 2020/01/18 15:50 UTC NOAA

Westerland / Sylt, Germany (EDXW) 54-55N 008-21E 20M
Jan 18, 2020 - 10:50 AM EST / 2020.01.18 1550 UTC
Wind: from the W (280 degrees) at 17 MPH (15 KT):0
Visibility: greater than 7 mile(s):0
Sky conditions: partly cloudy
Weather: showers in the vicinity; Towering cumulus clouds observed
Temperature: 42 F (6 C)
Dew Point: 39 F (4 C)
Relative Humidity: 86%
Pressure (altimeter): 30.06 in. Hg (1018 hPa)
ob: EDXW 181550Z 28015KT 9999 VCSH SCT023TCU 06/04 Q1018
cycle: 16

Station Type Date Time Source
EDXW TAF 2009/07/07 14:00 UTC NOAA

TAF EDXW 071400Z 0715/0719 22015G25KT 9999 SCT020

Example: see airport list